createdAt,value
2018-06-23T00:01:14.954Z,5.67
2018-06-23T00:03:43.002Z,5.33
2018-06-23T00:06:11.062Z,6.45
2018-06-23T00:08:39.142Z,7.03
2018-06-23T00:11:07.160Z,6.22
2018-06-23T00:13:35.246Z,6.22
2018-06-23T00:16:03.633Z,5.97
2018-06-23T00:18:31.664Z,6.37
2018-06-23T00:20:59.705Z,5.50
2018-06-23T00:23:27.849Z,5.15
2018-06-23T00:26:01.418Z,5.83
2018-06-23T00:28:29.509Z,5.80
2018-06-23T00:30:57.515Z,5.45
2018-06-23T00:33:25.535Z,5.25
2018-06-23T00:35:53.610Z,5.20
2018-06-23T00:38:21.629Z,5.62
2018-06-23T00:40:49.718Z,5.85
2018-06-23T00:43:17.794Z,5.40
2018-06-23T00:45:45.877Z,6.15
2018-06-23T00:48:13.882Z,6.60
2018-06-23T00:50:41.909Z,5.87
2018-06-23T00:53:09.945Z,5.75
2018-06-23T00:55:38.017Z,5.40
2018-06-23T00:58:06.421Z,5.28
2018-06-23T01:00:34.438Z,5.80
2018-06-23T01:03:02.491Z,6.20
2018-06-23T01:05:30.564Z,5.47
2018-06-23T01:07:58.633Z,5.10
2018-06-23T01:10:26.669Z,5.83
2018-06-23T01:12:54.777Z,5.37
2018-06-23T01:15:22.789Z,6.33
2018-06-23T01:17:50.806Z,5.20
2018-06-23T01:20:18.932Z,4.90
2018-06-23T01:22:46.941Z,5.15
2018-06-23T01:25:21.637Z,5.35
2018-06-23T01:27:49.658Z,5.17
2018-06-23T01:30:17.709Z,5.65
2018-06-23T01:32:45.744Z,6.20
2018-06-23T01:35:13.773Z,5.45
2018-06-23T01:37:41.858Z,6.47
2018-06-23T01:40:09.905Z,4.95
2018-06-23T01:42:37.966Z,5.45
2018-06-23T01:45:05.994Z,5.22
2018-06-23T01:47:34.221Z,5.00
2018-06-23T01:50:02.235Z,5.25
2018-06-23T01:52:30.288Z,6.17
2018-06-23T01:54:58.358Z,5.87
2018-06-23T01:57:26.399Z,5.37
2018-06-23T01:59:54.420Z,5.40
2018-06-23T02:02:22.504Z,5.62
2018-06-23T02:04:50.611Z,5.37
2018-06-23T02:07:23.927Z,5.65
2018-06-23T02:09:51.923Z,6.20
2018-06-23T02:12:19.994Z,6.42
2018-06-23T02:14:53.596Z,5.25
2018-06-23T02:17:27.175Z,5.90
2018-06-23T02:21:01.596Z,5.90
2018-06-23T02:23:35.208Z,4.72
2018-06-23T02:26:08.721Z,4.70
2018-06-23T02:28:42.141Z,5.45
2018-06-23T02:31:15.722Z,4.83
2018-06-23T02:33:49.380Z,5.08
2018-06-23T02:36:17.829Z,5.60
2018-06-23T02:38:45.849Z,5.08
2018-06-23T02:41:13.862Z,5.30
2018-06-23T02:43:41.936Z,4.87
2018-06-23T02:46:09.986Z,4.67
2018-06-23T02:48:38.012Z,5.37
2018-06-23T02:51:06.383Z,4.42
2018-06-23T02:53:34.398Z,4.50
2018-06-23T02:56:02.427Z,4.42
2018-06-23T02:58:30.498Z,4.47
2018-06-23T03:00:58.551Z,5.53
2018-06-23T03:03:26.674Z,4.70
2018-06-23T03:05:54.706Z,3.98
2018-06-23T03:08:22.776Z,5.25
2018-06-23T03:10:50.809Z,4.30
2018-06-23T03:13:18.885Z,4.15
2018-06-23T03:15:46.991Z,4.08
2018-06-23T03:18:15.027Z,4.55
2018-06-23T03:20:43.045Z,3.70
2018-06-23T03:23:11.069Z,3.80
2018-06-23T03:25:39.214Z,3.85
2018-06-23T03:28:07.269Z,3.45
2018-06-23T03:30:35.301Z,4.20
2018-06-23T03:33:03.407Z,3.87
2018-06-23T03:35:31.456Z,4.50
2018-06-23T03:37:59.536Z,4.58
2018-06-23T03:40:27.590Z,3.45
2018-06-23T03:42:55.681Z,4.03
2018-06-23T03:45:23.769Z,5.30
2018-06-23T03:47:51.835Z,3.80
2018-06-23T03:50:19.862Z,3.90
2018-06-23T03:52:48.033Z,4.55
2018-06-23T03:55:16.099Z,4.17
2018-06-23T03:57:44.132Z,3.80
2018-06-23T04:00:12.474Z,4.05
2018-06-23T04:02:40.539Z,3.80
2018-06-23T04:05:08.569Z,4.05
2018-06-23T04:07:36.609Z,4.03
2018-06-23T04:10:04.687Z,3.85
2018-06-23T04:12:32.956Z,4.60
2018-06-23T04:15:01.138Z,4.58
2018-06-23T04:17:29.329Z,3.98
2018-06-23T04:19:57.425Z,4.33
2018-06-23T04:22:25.442Z,3.65
2018-06-23T04:24:53.468Z,3.17
2018-06-23T04:27:21.565Z,3.58
2018-06-23T04:29:49.596Z,3.30
2018-06-23T04:32:18.030Z,3.50
2018-06-23T04:34:46.309Z,4.03
2018-06-23T04:37:14.345Z,3.15
2018-06-23T04:39:42.401Z,4.15
2018-06-23T04:42:10.686Z,3.30
2018-06-23T04:44:38.797Z,3.70
2018-06-23T04:47:06.857Z,3.17
2018-06-23T04:49:35.142Z,4.20
2018-06-23T04:52:03.331Z,3.77
2018-06-23T04:54:31.485Z,3.55
2018-06-23T04:56:59.635Z,3.10
2018-06-23T04:59:27.712Z,3.35
2018-06-23T05:01:55.772Z,3.45
2018-06-23T05:04:23.849Z,3.75
2018-06-23T05:06:52.156Z,3.35
2018-06-23T05:09:20.195Z,3.25
2018-06-23T05:11:48.217Z,3.27
2018-06-23T05:14:16.292Z,4.10
2018-06-23T05:16:44.320Z,3.58
2018-06-23T05:19:12.389Z,3.40
2018-06-23T05:21:40.454Z,3.60
2018-06-23T05:24:08.481Z,3.50
2018-06-23T05:26:36.505Z,3.85
2018-06-23T05:29:04.574Z,4.25
2018-06-23T05:31:32.616Z,4.28
2018-06-23T05:34:00.696Z,4.00
2018-06-23T05:36:28.788Z,3.83
2018-06-23T05:38:56.853Z,3.80
2018-06-23T05:41:24.941Z,3.45
2018-06-23T05:43:53.186Z,3.15
2018-06-23T05:46:21.272Z,3.20
2018-06-23T05:48:49.391Z,4.60
2018-06-23T05:51:17.861Z,4.12
2018-06-23T05:53:45.820Z,3.50
2018-06-23T05:56:13.933Z,3.25
2018-06-23T05:58:42.392Z,4.08
2018-06-23T06:01:10.447Z,3.65
2018-06-23T06:03:38.563Z,3.30
2018-06-23T06:06:06.621Z,3.40
2018-06-23T06:08:34.647Z,3.35
2018-06-23T06:11:02.869Z,3.50
2018-06-23T06:13:30.998Z,3.42
2018-06-23T06:15:59.368Z,3.10
2018-06-23T06:18:27.434Z,3.23
2018-06-23T06:20:55.543Z,3.45
2018-06-23T06:23:23.625Z,3.20
2018-06-23T06:25:52.027Z,3.17
2018-06-23T06:28:20.092Z,3.42
2018-06-23T06:30:48.174Z,3.80
2018-06-23T06:33:16.228Z,3.10
2018-06-23T06:35:44.445Z,2.40
2018-06-23T06:38:12.980Z,3.07
2018-06-23T06:40:41.065Z,3.17
2018-06-23T06:43:09.161Z,3.10
2018-06-23T06:45:37.194Z,3.60
2018-06-23T06:48:06.123Z,2.70
2018-06-23T06:50:34.213Z,2.80
2018-06-23T06:53:02.370Z,3.03
2018-06-23T06:55:30.459Z,3.23
2018-06-23T06:57:58.500Z,3.03
2018-06-23T07:00:26.566Z,2.97
2018-06-23T07:02:54.608Z,3.03
2018-06-23T07:05:22.657Z,3.10
2018-06-23T07:07:50.725Z,2.83
2018-06-23T07:10:18.846Z,3.30
2018-06-23T07:12:46.848Z,3.63
2018-06-23T07:15:16.537Z,2.90
2018-06-23T07:17:45.002Z,3.30
2018-06-23T07:20:13.889Z,2.60
2018-06-23T07:22:43.947Z,3.67
2018-06-23T07:25:12.356Z,2.20
2018-06-23T07:27:40.679Z,2.90
2018-06-23T07:30:09.278Z,4.10
2018-06-23T07:32:37.511Z,2.33
2018-06-23T07:35:05.852Z,3.17
2018-06-23T07:37:34.065Z,3.43
2018-06-23T07:40:02.308Z,3.60
2018-06-23T07:42:30.685Z,3.27
2018-06-23T07:44:58.973Z,2.97
2018-06-23T07:47:27.253Z,3.40
2018-06-23T07:49:55.209Z,3.10
2018-06-23T07:52:23.434Z,3.23
2018-06-23T07:57:26.401Z,2.83
2018-06-23T07:59:54.731Z,4.23
2018-06-23T08:02:23.043Z,3.40
2018-06-23T08:04:51.282Z,4.10
2018-06-23T08:07:19.509Z,3.40
2018-06-23T08:09:47.757Z,3.20
2018-06-23T08:12:15.977Z,3.10
2018-06-23T08:14:44.355Z,3.00
2018-06-23T08:17:13.183Z,4.03
2018-06-23T08:19:41.453Z,2.90
2018-06-23T08:22:09.759Z,3.30
2018-06-23T08:24:38.015Z,3.17
2018-06-23T08:27:06.307Z,3.10
2018-06-23T08:29:34.509Z,3.20
2018-06-23T08:32:02.771Z,2.90
2018-06-23T08:34:31.037Z,3.40
2018-06-23T08:36:59.277Z,2.90
2018-06-23T08:39:27.559Z,3.97
2018-06-23T08:41:55.911Z,3.37
2018-06-23T08:44:24.270Z,2.73
2018-06-23T08:46:52.616Z,3.27
2018-06-23T08:49:21.216Z,3.10
2018-06-23T08:51:49.539Z,3.13
2018-06-23T08:54:17.883Z,3.37
2018-06-23T08:56:46.137Z,2.67
2018-06-23T08:59:14.356Z,3.37
2018-06-23T09:01:42.708Z,3.00
2018-06-23T09:04:11.070Z,3.07
2018-06-23T09:06:39.451Z,3.20
2018-06-23T09:09:09.191Z,2.93
2018-06-23T09:11:37.707Z,3.20
2018-06-23T09:14:05.918Z,2.80
2018-06-23T09:16:34.833Z,3.10
2018-06-23T09:19:03.077Z,3.43
2018-06-23T09:21:31.505Z,3.03
2018-06-23T09:23:59.554Z,3.30
2018-06-23T09:26:27.517Z,3.07
2018-06-23T09:28:55.521Z,3.37
2018-06-23T09:31:24.253Z,3.37
2018-06-23T09:33:52.579Z,2.83
2018-06-23T09:36:20.789Z,2.63
2018-06-23T09:38:49.396Z,3.33
2018-06-23T09:41:17.912Z,4.00
2018-06-23T09:43:45.873Z,2.90
2018-06-23T09:46:13.932Z,3.20
2018-06-23T09:48:42.192Z,3.03
2018-06-23T09:51:10.484Z,3.23
2018-06-23T09:53:38.781Z,2.70
2018-06-23T09:56:06.765Z,2.50
2018-06-23T09:58:35.123Z,2.33
2018-06-23T10:01:03.399Z,2.40
2018-06-23T10:03:31.856Z,2.27
2018-06-23T10:06:00.725Z,2.80
2018-06-23T10:08:28.986Z,2.30
2018-06-23T10:10:57.213Z,2.63
2018-06-23T10:13:25.500Z,2.17
2018-06-23T10:15:53.734Z,2.50
2018-06-23T10:18:21.690Z,2.17
2018-06-23T10:20:49.929Z,2.17
2018-06-23T10:23:18.136Z,2.23
2018-06-23T10:25:46.176Z,2.27
2018-06-23T10:28:14.476Z,2.50
2018-06-23T10:30:42.507Z,2.10
2018-06-23T10:33:10.766Z,2.33
2018-06-23T10:35:39.073Z,1.90
2018-06-23T10:38:07.346Z,1.70
2018-06-23T10:40:36.084Z,2.07
2018-06-23T10:43:04.369Z,1.70
2018-06-23T10:45:32.523Z,1.30
2018-06-23T10:48:01.931Z,1.60
2018-06-23T10:50:30.177Z,2.03
2018-06-23T10:52:58.512Z,1.97
2018-06-23T10:55:26.962Z,2.07
2018-06-23T10:57:55.349Z,2.00
2018-06-23T11:00:23.637Z,2.47
2018-06-23T11:02:52.184Z,2.10
2018-06-23T11:05:20.439Z,2.30
2018-06-23T11:07:48.777Z,1.83
2018-06-23T11:10:17.072Z,1.83
2018-06-23T11:12:45.354Z,1.80
2018-06-23T11:15:13.750Z,1.60
2018-06-23T11:17:42.026Z,1.80
2018-06-23T11:20:10.339Z,1.80
2018-06-23T11:22:38.812Z,2.10
2018-06-23T11:25:07.226Z,2.67
2018-06-23T11:27:35.472Z,2.40
2018-06-23T11:30:04.424Z,2.00
2018-06-23T11:32:32.670Z,1.80
2018-06-23T11:35:01.067Z,1.67
2018-06-23T11:37:29.432Z,1.90
2018-06-23T11:39:57.750Z,1.90
2018-06-23T11:42:26.145Z,1.40
2018-06-23T11:44:54.405Z,1.73
2018-06-23T11:47:22.677Z,1.57
2018-06-23T11:49:51.278Z,1.63
2018-06-23T11:52:19.701Z,3.33
2018-06-23T11:54:47.944Z,1.80
2018-06-23T11:57:16.350Z,1.73
2018-06-23T11:59:44.584Z,2.10
2018-06-23T12:02:12.894Z,3.20
2018-06-23T12:04:41.277Z,1.73
2018-06-23T12:07:09.574Z,2.50
2018-06-23T12:09:37.865Z,2.17
2018-06-23T12:12:06.101Z,1.67
2018-06-23T12:14:34.370Z,1.50
2018-06-23T12:17:02.875Z,1.60
2018-06-23T12:19:31.421Z,3.80
2018-06-23T12:21:59.842Z,8.07
2018-06-23T12:24:28.190Z,12.47
2018-06-23T12:26:57.206Z,2.17
2018-06-23T12:29:25.616Z,2.37
2018-06-23T12:31:53.837Z,1.60
2018-06-23T12:34:22.436Z,3.10
2018-06-23T12:36:50.714Z,3.83
2018-06-23T12:39:19.084Z,2.17
2018-06-23T12:41:47.510Z,3.17
2018-06-23T12:44:15.930Z,8.40
2018-06-23T12:46:44.279Z,3.40
2018-06-23T12:49:12.711Z,5.30
2018-06-23T12:51:40.965Z,2.37
2018-06-23T12:54:09.238Z,1.93
2018-06-23T12:56:37.298Z,2.20
2018-06-23T12:59:05.606Z,2.27
2018-06-23T13:01:33.958Z,1.83
2018-06-23T13:04:02.219Z,2.13
2018-06-23T13:06:30.574Z,2.37
2018-06-23T13:08:58.815Z,1.97
2018-06-23T13:11:27.127Z,2.13
2018-06-23T13:13:55.345Z,2.00
2018-06-23T13:16:23.549Z,1.60
2018-06-23T13:18:51.858Z,2.00
2018-06-23T13:21:20.120Z,1.87
2018-06-23T13:23:48.532Z,1.60
2018-06-23T13:26:16.785Z,1.57
2018-06-23T13:28:45.038Z,1.40
2018-06-23T13:31:13.048Z,1.63
2018-06-23T13:33:41.203Z,1.20
2018-06-23T13:36:09.482Z,1.33
2018-06-23T13:38:38.078Z,1.87
2018-06-23T13:41:06.814Z,1.60
2018-06-23T13:43:35.605Z,1.60
2018-06-23T13:46:03.928Z,1.70
2018-06-23T13:48:32.929Z,1.53
2018-06-23T13:51:01.449Z,1.30
2018-06-23T13:53:29.797Z,1.33
2018-06-23T13:55:57.747Z,1.50
2018-06-23T13:58:26.213Z,1.70
2018-06-23T14:00:55.026Z,1.30
2018-06-23T14:03:23.600Z,1.50
2018-06-23T14:05:51.781Z,1.30
2018-06-23T14:08:19.878Z,1.80
2018-06-23T14:10:48.255Z,1.37
2018-06-23T14:13:16.629Z,1.60
2018-06-23T14:15:44.893Z,2.00
2018-06-23T14:18:12.898Z,1.97
2018-06-23T14:20:41.187Z,1.50
2018-06-23T14:23:09.470Z,1.60
2018-06-23T14:25:37.517Z,1.77
2018-06-23T14:28:06.438Z,1.47
2018-06-23T14:30:34.717Z,1.60
2018-06-23T14:33:02.699Z,1.80
2018-06-23T14:35:30.994Z,1.23
2018-06-23T14:37:59.370Z,2.00
2018-06-23T14:40:27.341Z,1.70
2018-06-23T14:42:55.297Z,2.10
2018-06-23T14:45:23.330Z,2.40
2018-06-23T14:47:51.546Z,1.97
2018-06-23T14:50:19.565Z,2.23
2018-06-23T14:52:48.177Z,2.13
2018-06-23T14:55:16.650Z,2.10
2018-06-23T14:57:44.878Z,2.37
2018-06-23T15:00:13.434Z,2.17
2018-06-23T15:02:41.789Z,2.50
2018-06-23T15:05:10.116Z,2.33
2018-06-23T15:07:38.421Z,1.97
2018-06-23T15:10:18.281Z,1.90
2018-06-23T15:12:58.157Z,1.93
2018-06-23T15:15:26.433Z,2.60
2018-06-23T15:17:54.713Z,2.03
2018-06-23T15:20:22.961Z,1.80
2018-06-23T15:22:51.163Z,1.97
2018-06-23T15:25:19.634Z,1.80
2018-06-23T15:27:47.734Z,2.20
2018-06-23T15:30:15.745Z,2.40
2018-06-23T15:32:44.050Z,2.13
2018-06-23T15:35:12.662Z,1.83
2018-06-23T15:37:40.925Z,2.40
2018-06-23T15:40:09.327Z,2.40
2018-06-23T15:42:37.605Z,1.97
2018-06-23T15:45:05.857Z,2.57
2018-06-23T15:47:34.466Z,2.20
2018-06-23T15:50:02.740Z,2.03
2018-06-23T15:52:31.019Z,2.20
2018-06-23T15:54:58.982Z,2.83
2018-06-23T15:57:26.937Z,2.60
2018-06-23T15:59:55.238Z,2.23
2018-06-23T16:02:23.594Z,2.97
2018-06-23T16:04:51.812Z,2.43
2018-06-23T16:07:20.321Z,2.30
2018-06-23T16:09:48.336Z,2.80
2018-06-23T16:12:16.814Z,2.93
2018-06-23T16:14:44.891Z,4.47
2018-06-23T16:17:13.101Z,4.70
2018-06-23T16:19:41.401Z,2.90
2018-06-23T16:22:09.681Z,4.00
2018-06-23T16:24:38.001Z,2.80
2018-06-23T16:27:05.993Z,3.10
2018-06-23T16:29:34.261Z,3.63
2018-06-23T16:32:02.629Z,3.60
2018-06-23T16:34:31.146Z,3.50
2018-06-23T16:36:59.376Z,4.17
2018-06-23T16:39:27.637Z,3.50
2018-06-23T16:41:55.667Z,3.60
2018-06-23T16:44:23.861Z,3.77
2018-06-23T16:46:52.138Z,3.50
2018-06-23T16:49:20.413Z,3.97
2018-06-23T16:51:48.748Z,3.90
2018-06-23T16:54:16.986Z,4.20
2018-06-23T16:56:45.262Z,5.00
2018-06-23T16:59:13.521Z,4.30
2018-06-23T17:01:41.537Z,4.50
2018-06-23T17:04:09.920Z,4.77
2018-06-23T17:06:37.889Z,5.40
2018-06-23T17:09:07.988Z,4.60
2018-06-23T17:11:36.288Z,4.50
2018-06-23T17:14:04.316Z,4.73
2018-06-23T17:16:32.582Z,4.40
2018-06-23T17:19:00.818Z,4.03
2018-06-23T17:21:29.074Z,4.10
2018-06-23T17:23:57.275Z,4.53
2018-06-23T17:26:25.597Z,4.40
2018-06-23T17:28:54.069Z,5.57
2018-06-23T17:31:22.475Z,4.90
2018-06-23T17:33:51.164Z,5.30
2018-06-23T17:36:19.611Z,5.57
2018-06-23T17:38:47.605Z,5.90
2018-06-23T17:41:15.860Z,5.20
2018-06-23T17:43:43.854Z,5.73
2018-06-23T17:46:12.128Z,5.97
2018-06-23T17:48:40.324Z,6.50
2018-06-23T17:51:08.773Z,6.40
2018-06-23T17:53:36.805Z,6.20
2018-06-23T17:56:05.275Z,6.70
2018-06-23T17:58:33.633Z,6.10
2018-06-23T18:01:01.954Z,6.30
2018-06-23T18:03:30.194Z,7.07
2018-06-23T18:05:58.512Z,6.50
2018-06-23T18:08:26.854Z,7.10
2018-06-23T18:10:54.885Z,8.00
2018-06-23T18:13:23.133Z,7.50
2018-06-23T18:15:51.133Z,8.07
2018-06-23T18:18:19.131Z,6.87
2018-06-23T18:20:47.389Z,7.70
2018-06-23T18:23:15.359Z,7.40
2018-06-23T18:25:43.655Z,8.17
2018-06-23T18:28:11.887Z,7.77
2018-06-23T18:30:40.211Z,8.07
2018-06-23T18:33:08.519Z,8.20
2018-06-23T18:35:36.880Z,8.10
2018-06-23T18:38:05.233Z,8.10
2018-06-23T18:40:33.396Z,7.70
2018-06-23T18:43:01.795Z,7.50
2018-06-23T18:45:30.109Z,7.57
2018-06-23T18:47:58.380Z,5.97
2018-06-23T18:50:26.662Z,5.70
2018-06-23T18:52:54.997Z,5.10
2018-06-23T18:55:23.265Z,7.33
2018-06-23T18:57:51.240Z,6.23
2018-06-23T19:00:19.609Z,6.10
2018-06-23T19:02:47.877Z,6.23
2018-06-23T19:05:16.514Z,6.87
2018-06-23T19:07:44.889Z,7.30
2018-06-23T19:10:13.214Z,8.17
2018-06-23T19:12:41.552Z,7.97
2018-06-23T19:15:09.852Z,7.63
2018-06-23T19:17:38.145Z,7.23
2018-06-23T19:20:06.137Z,8.73
2018-06-23T19:22:34.416Z,9.00
2018-06-23T19:25:02.720Z,9.27
2018-06-23T19:27:31.005Z,10.80
2018-06-23T19:29:59.290Z,8.90
2018-06-23T19:32:27.533Z,9.50
2018-06-23T19:34:55.861Z,9.50
2018-06-23T19:37:24.085Z,10.87
2018-06-23T19:39:52.509Z,11.40
2018-06-23T19:42:21.058Z,12.00
2018-06-23T19:44:49.359Z,11.40
2018-06-23T19:47:17.687Z,11.30
2018-06-23T19:49:45.957Z,12.40
2018-06-23T19:52:14.268Z,12.20
2018-06-23T19:54:42.550Z,12.43
2018-06-23T19:57:10.773Z,13.23
2018-06-23T19:59:38.753Z,11.83
2018-06-23T20:02:06.765Z,12.30
2018-06-23T20:04:35.017Z,11.90
2018-06-23T20:07:03.113Z,12.17
2018-06-23T20:09:31.121Z,11.57
2018-06-23T20:11:59.496Z,11.03
2018-06-23T20:14:27.729Z,10.20
2018-06-23T20:16:56.030Z,10.90
2018-06-23T20:19:25.369Z,10.53
2018-06-23T20:21:54.023Z,11.50
2018-06-23T20:24:22.278Z,11.60
2018-06-23T20:26:50.574Z,12.37
2018-06-23T20:29:18.652Z,12.90
2018-06-23T20:31:46.998Z,12.20
2018-06-23T20:34:15.012Z,12.13
2018-06-23T20:36:43.055Z,12.17
2018-06-23T20:39:11.960Z,12.20
2018-06-23T20:41:40.382Z,13.20
2018-06-23T20:44:08.685Z,12.63
2018-06-23T20:46:37.074Z,12.37
2018-06-23T20:49:05.466Z,13.63
2018-06-23T20:51:33.530Z,12.00
2018-06-23T20:54:01.953Z,11.63
2018-06-23T20:56:30.314Z,11.00
2018-06-23T20:58:58.957Z,11.53
2018-06-23T21:01:27.069Z,12.80
2018-06-23T21:03:55.452Z,11.07
2018-06-23T21:06:23.475Z,12.47
2018-06-23T21:08:51.739Z,12.28
2018-06-23T21:11:19.878Z,12.07
2018-06-23T21:13:47.932Z,11.55
2018-06-23T21:16:15.963Z,12.17
2018-06-23T21:18:44.234Z,11.43
2018-06-23T21:21:12.607Z,10.53
2018-06-23T21:23:41.824Z,12.53
2018-06-23T21:26:09.877Z,12.03
2018-06-23T21:28:38.304Z,10.87
2018-06-23T21:31:06.408Z,11.70
2018-06-23T21:33:34.665Z,11.20
2018-06-23T21:36:02.978Z,10.43
2018-06-23T21:38:31.019Z,10.83
2018-06-23T21:40:59.012Z,10.17
2018-06-23T21:43:27.340Z,9.63
2018-06-23T21:45:55.650Z,9.57
2018-06-23T21:48:23.866Z,9.20
2018-06-23T21:50:52.047Z,9.50
2018-06-23T21:53:20.249Z,8.80
2018-06-23T21:55:48.271Z,8.78
2018-06-23T21:58:16.590Z,8.87
2018-06-23T22:00:45.542Z,8.50
2018-06-23T22:03:14.858Z,9.00
2018-06-23T22:05:43.150Z,9.03
2018-06-23T22:08:11.233Z,8.30
2018-06-23T22:10:39.510Z,9.48
2018-06-23T22:13:08.064Z,9.65
2018-06-23T22:15:36.354Z,9.80
2018-06-23T22:18:04.805Z,9.30
2018-06-23T22:20:33.151Z,9.15
2018-06-23T22:23:01.526Z,8.80
2018-06-23T22:25:30.606Z,8.83
2018-06-23T22:27:58.882Z,10.13
2018-06-23T22:30:27.215Z,9.90
2018-06-23T22:32:55.493Z,9.57
2018-06-23T22:35:23.568Z,9.70
2018-06-23T22:37:51.797Z,10.77
2018-06-23T22:40:20.106Z,9.20
2018-06-23T22:42:48.400Z,10.05
2018-06-23T22:45:16.603Z,9.60
2018-06-23T22:47:44.638Z,9.70
2018-06-23T22:50:12.849Z,9.13
2018-06-23T22:52:41.139Z,9.83
2018-06-23T22:55:10.291Z,10.20
2018-06-23T22:57:38.722Z,9.50
2018-06-23T23:00:08.348Z,9.93
2018-06-23T23:02:36.660Z,10.23
2018-06-23T23:05:04.705Z,9.73
2018-06-23T23:07:33.070Z,10.40
2018-06-23T23:10:01.348Z,10.72
2018-06-23T23:12:29.676Z,12.37
2018-06-23T23:14:57.941Z,11.53
2018-06-23T23:17:26.000Z,11.20
2018-06-23T23:19:54.869Z,11.20
2018-06-23T23:22:23.235Z,11.97
2018-06-23T23:24:51.615Z,11.30
2018-06-23T23:27:19.926Z,12.45
2018-06-23T23:29:47.986Z,11.10
2018-06-23T23:32:16.810Z,11.70
2018-06-23T23:34:45.161Z,10.28
2018-06-23T23:37:13.400Z,10.50
2018-06-23T23:39:41.713Z,10.60
2018-06-23T23:42:10.045Z,10.53
2018-06-23T23:44:38.321Z,11.55
2018-06-23T23:47:06.353Z,11.95
2018-06-23T23:49:34.636Z,12.05
2018-06-23T23:52:02.934Z,11.38
2018-06-23T23:54:31.187Z,10.68
2018-06-23T23:56:59.165Z,10.90
2018-06-23T23:59:27.374Z,10.20
